Time;durP1;ratioP1;P1;durP2;ratioP2;P2;SDS_P1;SDS_P2;PMS_P1;PMS_P2;Temp;Humidity;BMP_temperature;BMP_pressure;BME280_temperature;BME280_humidity;BME280_pressure;Samples;Min_cycle;Max_cycle;Signal;HPM_P1;HPM_P2
2022/10/25 00:01:34;;;;;;;3.10;2.60;;;9.00;99.90;;;;;;5071295;28;20083;-49
2022/10/25 00:03:59;;;;;;;4.43;2.70;;;8.90;99.90;;;;;;5071536;28;20028;-50
2022/10/25 00:06:25;;;;;;;4.05;2.85;;;8.90;99.90;;;;;;5071052;28;20400;-50
2022/10/25 00:08:51;;;;;;;11.48;2.53;;;8.90;99.90;;;;;;5071127;28;20162;-50
2022/10/25 00:11:25;;;;;;;2.78;2.58;;;9.00;99.90;;;;;;5071282;28;20102;-51
2022/10/25 00:13:53;;;;;;;4.82;3.03;;;9.00;99.90;;;;;;5071401;28;20086;-50
2022/10/25 00:16:24;;;;;;;8.35;2.80;;;9.00;99.90;;;;;;5070882;28;20047;-51
2022/10/25 00:18:50;;;;;;;6.22;3.20;;;9.00;99.90;;;;;;5071299;28;20028;-50
2022/10/25 00:21:16;;;;;;;5.53;2.90;;;9.00;99.90;;;;;;5069666;28;20112;-50
2022/10/25 00:23:42;;;;;;;7.10;2.70;;;9.00;99.90;;;;;;5071277;28;20099;-50
2022/10/25 00:26:09;;;;;;;3.10;2.45;;;9.00;99.90;;;;;;5070965;28;20027;-53
2022/10/25 00:28:34;;;;;;;6.78;2.22;;;9.00;99.90;;;;;;5071070;28;20479;-50
2022/10/25 00:31:13;;;;;;;7.80;2.67;;;9.10;99.90;;;;;;5071187;28;20036;-51
2022/10/25 00:33:40;;;;;;;8.50;2.72;;;9.10;99.90;;;;;;5071067;28;20094;-50
2022/10/25 00:36:10;;;;;;;6.95;2.40;;;9.10;99.90;;;;;;5070925;28;20052;-51
2022/10/25 00:38:37;;;;;;;2.95;2.17;;;9.10;99.90;;;;;;5071050;28;20490;-50
2022/10/25 00:41:03;;;;;;;3.05;2.28;;;9.10;99.90;;;;;;5071130;28;20028;-50
2022/10/25 00:43:35;;;;;;;2.30;2.10;;;9.10;99.90;;;;;;5070751;28;20029;-51
2022/10/25 00:46:17;;;;;;;7.80;2.38;;;9.10;99.90;;;;;;5069531;28;20079;-50
2022/10/25 00:49:00;;;;;;;4.78;1.95;;;9.10;99.90;;;;;;5073466;28;20419;-51
2022/10/25 00:51:57;;;;;;;2.85;2.25;;;9.20;99.90;;;;;;5074541;28;20052;-51
2022/10/25 00:54:31;;;;;;;13.45;1.92;;;9.20;99.90;;;;;;5073177;28;20032;-50
2022/10/25 00:56:59;;;;;;;2.72;2.20;;;9.20;99.90;;;;;;5073257;28;20020;-50
2022/10/25 00:59:27;;;;;;;2.45;2.25;;;9.20;99.90;;;;;;5074178;28;20027;-49
2022/10/25 01:01:54;;;;;;;3.60;2.30;;;9.30;99.90;;;;;;5074421;28;20021;-50
2022/10/25 01:04:24;;;;;;;2.97;2.25;;;9.20;99.90;;;;;;5074214;28;20016;-50
2022/10/25 01:06:51;;;;;;;7.80;3.15;;;9.30;99.90;;;;;;5074344;28;20379;-51
2022/10/25 01:09:29;;;;;;;7.30;2.33;;;9.30;99.90;;;;;;5073766;28;20476;-51
2022/10/25 01:11:55;;;;;;;7.18;2.40;;;9.20;99.90;;;;;;5074196;28;20029;-50
2022/10/25 01:14:21;;;;;;;4.28;2.75;;;9.20;99.90;;;;;;5074074;28;20395;-49
2022/10/25 01:17:06;;;;;;;3.75;2.30;;;9.30;99.90;;;;;;5073970;28;20034;-50
2022/10/25 01:19:37;;;;;;;7.07;2.85;;;9.20;99.90;;;;;;5072527;28;20075;-51
2022/10/25 01:22:07;;;;;;;7.45;2.83;;;9.20;99.90;;;;;;5074125;28;20074;-50
2022/10/25 01:24:59;;;;;;;8.15;2.20;;;9.10;99.90;;;;;;5073877;28;20134;-50
2022/10/25 01:27:53;;;;;;;8.80;2.47;;;9.00;99.90;;;;;;5026810;28;20047;-51
2022/10/25 01:30:24;;;;;;;6.63;2.40;;;9.00;99.90;;;;;;5073745;28;20368;-50
2022/10/25 01:32:53;;;;;;;5.07;2.17;;;8.90;99.90;;;;;;5073883;28;20028;-50
2022/10/25 01:35:44;;;;;;;2.85;2.63;;;8.80;99.90;;;;;;5073406;28;20074;-50
2022/10/25 01:38:38;;;;;;;2.50;2.30;;;8.70;99.90;;;;;;5073434;28;20024;-50
2022/10/25 01:41:16;;;;;;;;;;;8.70;99.90;;;;;;5074045;28;20032;-50
2022/10/25 01:44:10;;;;;;;5.75;2.50;;;8.50;99.90;;;;;;5073567;28;20272;-50
2022/10/25 01:46:43;;;;;;;8.13;2.08;;;8.50;99.90;;;;;;5073190;28;20042;-50
2022/10/25 01:49:15;;;;;;;3.00;2.58;;;8.30;99.90;;;;;;5073532;28;20025;-49
2022/10/25 01:51:41;;;;;;;5.57;2.20;;;8.30;99.90;;;;;;5071993;28;20081;-50
2022/10/25 01:54:24;;;;;;;3.85;2.20;;;8.20;99.90;;;;;;5073492;28;20036;-50
2022/10/25 01:57:01;;;;;;;5.93;2.42;;;8.10;99.90;;;;;;5073386;28;20116;-50
2022/10/25 02:00:08;;;;;;;15.82;2.60;;;8.00;99.90;;;;;;5072178;28;20100;-49
2022/10/25 02:02:51;;;;;;;9.85;3.13;;;8.00;99.90;;;;;;5073179;28;20076;-49
2022/10/25 02:05:32;;;;;;;3.45;2.45;;;7.90;99.90;;;;;;5073021;28;20043;-50
2022/10/25 02:08:23;;;;;;;3.90;2.30;;;7.90;99.90;;;;;;5073102;28;20048;-49
2022/10/25 02:10:51;;;;;;;9.80;2.17;;;8.00;99.90;;;;;;5073104;28;20192;-51
2022/10/25 02:13:23;;;;;;;4.97;2.17;;;8.00;99.90;;;;;;5072989;28;20368;-50
2022/10/25 02:16:18;;;;;;;7.43;2.47;;;8.00;99.90;;;;;;5072921;28;20081;-49
2022/10/25 02:18:48;;;;;;;5.50;2.10;;;8.00;99.90;;;;;;5068205;28;20040;-50
2022/10/25 02:21:16;;;;;;;8.23;2.50;;;7.90;99.90;;;;;;5072527;28;20017;-50
2022/10/25 02:23:43;;;;;;;3.42;2.50;;;7.90;99.90;;;;;;5072872;28;20056;-50
2022/10/25 02:26:10;;;;;;;4.65;2.10;;;8.00;99.90;;;;;;5072631;28;20033;-50
2022/10/25 02:28:39;;;;;;;8.05;2.22;;;8.00;99.90;;;;;;5072856;28;20029;-50
2022/10/25 02:31:13;;;;;;;8.73;2.78;;;8.00;99.90;;;;;;5072495;28;20021;-50
2022/10/25 02:33:39;;;;;;;3.10;2.47;;;8.00;99.90;;;;;;5072553;28;20040;-51
2022/10/25 02:36:06;;;;;;;4.18;2.25;;;8.00;99.90;;;;;;5072612;28;20032;-51
2022/10/25 02:38:32;;;;;;;7.68;2.10;;;8.00;99.90;;;;;;5072600;28;20103;-51
2022/10/25 02:41:00;;;;;;;3.00;2.30;;;8.10;99.90;;;;;;5072491;28;20077;-52
2022/10/25 02:43:26;;;;;;;4.70;2.50;;;8.10;99.90;;;;;;5072238;28;20052;-49
2022/10/25 02:45:52;;;;;;;4.15;2.70;;;8.10;99.90;;;;;;5072266;28;20937;-51
2022/10/25 02:48:17;;;;;;;2.50;2.30;;;8.10;99.90;;;;;;5072217;28;20028;-50
2022/10/25 02:50:43;;;;;;;9.27;2.17;;;8.10;99.90;;;;;;5072285;28;20020;-50
2022/10/25 02:53:08;;;;;;;2.08;1.92;;;8.10;99.90;;;;;;5072064;28;20027;-50
2022/10/25 02:55:34;;;;;;;2.30;2.10;;;8.10;99.90;;;;;;5072100;28;20107;-50
2022/10/25 02:58:00;;;;;;;2.00;1.90;;;8.10;99.90;;;;;;5072268;28;20527;-50
2022/10/25 03:00:25;;;;;;;6.30;2.42;;;8.10;99.90;;;;;;5071887;28;20880;-50
2022/10/25 03:02:51;;;;;;;5.43;2.17;;;8.10;99.90;;;;;;5072066;28;20028;-50
2022/10/25 03:05:16;;;;;;;3.90;2.22;;;8.10;99.90;;;;;;5071578;28;20047;-51
2022/10/25 03:07:42;;;;;;;2.40;1.80;;;8.10;99.90;;;;;;5071905;28;20523;-50
2022/10/25 03:10:08;;;;;;;3.45;2.20;;;8.10;99.90;;;;;;5071836;28;20034;-49
2022/10/25 03:12:33;;;;;;;4.03;2.20;;;8.10;99.90;;;;;;5072028;28;20422;-49
2022/10/25 03:14:59;;;;;;;9.63;1.70;;;8.10;99.90;;;;;;5070381;28;20021;-50
2022/10/25 03:17:25;;;;;;;2.08;1.90;;;8.10;99.90;;;;;;5071715;28;20140;-51
2022/10/25 03:19:50;;;;;;;10.88;2.08;;;8.10;99.90;;;;;;5071895;28;20559;-49
2022/10/25 03:22:16;;;;;;;2.92;1.98;;;8.10;99.90;;;;;;5071466;28;20111;-51
2022/10/25 03:24:41;;;;;;;4.45;1.83;;;8.00;99.90;;;;;;5071780;28;20021;-50
2022/10/25 03:27:07;;;;;;;1.80;1.70;;;8.00;99.90;;;;;;5071758;28;20035;-51
2022/10/25 03:29:33;;;;;;;2.25;1.85;;;8.00;99.90;;;;;;5071587;28;20077;-53
2022/10/25 03:31:58;;;;;;;1.60;1.50;;;8.00;99.90;;;;;;5070435;28;20021;-50
2022/10/25 03:34:24;;;;;;;7.30;2.40;;;8.00;99.90;;;;;;5071443;28;20486;-49
2022/10/25 03:36:51;;;;;;;2.47;2.15;;;8.00;99.90;;;;;;5071655;28;20036;-50
2022/10/25 03:39:16;;;;;;;5.13;2.17;;;7.90;99.90;;;;;;5071528;28;20027;-50
2022/10/25 03:41:42;;;;;;;2.95;2.13;;;8.00;99.90;;;;;;5071601;28;20020;-49
2022/10/25 03:44:08;;;;;;;6.20;2.05;;;7.90;99.90;;;;;;5071429;28;20111;-51
2022/10/25 03:46:33;;;;;;;2.20;2.00;;;8.00;99.90;;;;;;5071528;28;20039;-50
2022/10/25 03:48:59;;;;;;;5.18;2.08;;;8.00;99.90;;;;;;5071454;28;20042;-49
2022/10/25 03:51:24;;;;;;;5.65;2.75;;;8.00;99.90;;;;;;5071406;28;20163;-50
2022/10/25 03:53:50;;;;;;;3.65;2.55;;;8.00;99.90;;;;;;5071458;28;20463;-49
2022/10/25 03:56:16;;;;;;;4.38;2.30;;;8.10;99.90;;;;;;5071117;28;20032;-51
2022/10/25 03:58:41;;;;;;;7.78;2.40;;;8.20;99.90;;;;;;5071423;28;20029;-50
2022/10/25 04:01:08;;;;;;;4.38;2.35;;;8.20;99.90;;;;;;5070074;28;20024;-52
2022/10/25 04:03:35;;;;;;;2.63;2.42;;;8.20;99.90;;;;;;5071199;28;20025;-50
2022/10/25 04:06:01;;;;;;;4.82;2.53;;;8.30;99.90;;;;;;5071311;28;20036;-51
2022/10/25 04:08:26;;;;;;;9.25;2.28;;;8.30;99.90;;;;;;5070855;28;20037;-51
2022/10/25 04:10:52;;;;;;;3.42;2.47;;;8.20;99.90;;;;;;5071464;28;20507;-50
2022/10/25 04:13:18;;;;;;;13.80;2.10;;;8.30;99.90;;;;;;5070998;28;20044;-51
2022/10/25 04:15:43;;;;;;;6.00;2.80;;;8.20;99.90;;;;;;5071331;28;20029;-49
2022/10/25 04:18:09;;;;;;;7.93;2.80;;;8.20;99.90;;;;;;5070867;28;20031;-51
2022/10/25 04:20:34;;;;;;;5.35;2.50;;;8.30;99.90;;;;;;5071371;28;20506;-50
2022/10/25 04:23:00;;;;;;;5.85;3.00;;;8.30;99.90;;;;;;5072629;28;20021;-49
2022/10/25 04:25:27;;;;;;;2.53;2.33;;;8.30;99.90;;;;;;5075003;28;20132;-50
2022/10/25 04:27:53;;;;;;;5.57;2.30;;;8.30;99.90;;;;;;5074921;28;20016;-50
2022/10/25 04:30:19;;;;;;;3.17;2.20;;;8.30;99.90;;;;;;5074860;28;20021;-51
2022/10/25 04:32:45;;;;;;;4.55;2.10;;;8.30;99.90;;;;;;5074944;28;20435;-50
2022/10/25 04:35:11;;;;;;;5.32;2.00;;;8.30;99.90;;;;;;5074723;28;20104;-53
2022/10/25 04:37:37;;;;;;;3.55;2.72;;;8.40;99.90;;;;;;5074765;28;20020;-50
2022/10/25 04:40:04;;;;;;;7.80;2.88;;;8.50;99.90;;;;;;5074839;28;20028;-50
2022/10/25 04:42:32;;;;;;;5.32;2.88;;;8.50;99.90;;;;;;5074436;28;20032;-49
2022/10/25 04:44:57;;;;;;;4.80;2.83;;;8.50;99.90;;;;;;5073525;28;20642;-50
2022/10/25 04:47:23;;;;;;;3.83;2.53;;;8.60;99.90;;;;;;5074343;28;20048;-50
2022/10/25 04:49:49;;;;;;;2.95;2.70;;;8.60;99.90;;;;;;5074733;28;20064;-53
2022/10/25 04:52:14;;;;;;;5.40;2.50;;;8.70;99.90;;;;;;5073922;28;20040;-50
2022/10/25 04:54:40;;;;;;;2.28;2.17;;;8.70;99.90;;;;;;5073673;28;20028;-50
2022/10/25 04:57:06;;;;;;;5.75;2.28;;;8.80;99.90;;;;;;5073615;28;20028;-51
2022/10/25 04:59:31;;;;;;;3.75;2.35;;;8.80;99.90;;;;;;5073890;28;20651;-52
2022/10/25 05:01:57;;;;;;;3.30;2.40;;;8.80;99.90;;;;;;5073664;28;20079;-50
2022/10/25 05:04:23;;;;;;;7.88;2.97;;;8.90;99.90;;;;;;5071958;28;20455;-50
2022/10/25 05:06:48;;;;;;;3.58;2.88;;;8.90;99.90;;;;;;5073890;28;20671;-49
2022/10/25 05:09:14;;;;;;;6.85;3.20;;;8.90;99.90;;;;;;5073902;28;20079;-50
2022/10/25 05:11:39;;;;;;;4.40;3.17;;;9.00;99.90;;;;;;5074081;28;20039;-52
2022/10/25 05:14:05;;;;;;;4.85;3.05;;;9.00;99.90;;;;;;5074084;28;20029;-50
2022/10/25 05:16:33;;;;;;;4.18;3.38;;;9.00;99.90;;;;;;5073786;28;20028;-51
2022/10/25 05:19:00;;;;;;;6.32;3.83;;;9.10;99.90;;;;;;5074297;28;20397;-51
2022/10/25 05:21:29;;;;;;;16.13;4.57;;;9.10;99.90;;;;;;5073778;28;20098;-51
2022/10/25 05:23:56;;;;;;;10.77;3.72;;;9.20;99.90;;;;;;5073700;28;20013;-50
2022/10/25 05:26:22;;;;;;;13.07;4.07;;;9.20;99.90;;;;;;5073613;28;20032;-50
2022/10/25 05:28:50;;;;;;;8.25;3.88;;;9.20;99.90;;;;;;5074023;28;20036;-50
2022/10/25 05:31:19;;;;;;;11.25;3.50;;;9.20;99.90;;;;;;5073893;28;20033;-50
2022/10/25 05:33:47;;;;;;;6.85;3.67;;;9.20;99.90;;;;;;5073017;28;20467;-50
2022/10/25 05:36:13;;;;;;;5.18;3.40;;;9.40;99.90;;;;;;5072853;28;20029;-51
2022/10/25 05:38:40;;;;;;;17.35;3.90;;;9.70;99.90;;;;;;5073385;28;20403;-50
2022/10/25 05:41:06;;;;;;;22.00;4.75;;;9.80;99.90;;;;;;5073815;28;20028;-50
2022/10/25 05:43:32;;;;;;;4.43;3.65;;;9.70;99.90;;;;;;5073505;28;20016;-51
2022/10/25 05:46:09;;;;;;;9.70;3.40;;;9.80;99.90;;;;;;5072686;28;20364;-54
2022/10/25 05:48:36;;;;;;;5.80;2.85;;;9.70;99.90;;;;;;5073252;28;20032;-50
2022/10/25 05:51:17;;;;;;;2.55;2.35;;;9.80;99.90;;;;;;5071943;28;20025;-49
2022/10/25 05:53:45;;;;;;;9.27;3.85;;;9.80;99.90;;;;;;5072013;28;20361;-50
2022/10/25 05:56:12;;;;;;;11.02;4.65;;;9.80;99.90;;;;;;5071844;28;20379;-50
2022/10/25 05:58:38;;;;;;;6.45;3.80;;;9.80;99.90;;;;;;5071818;28;20020;-50
2022/10/25 06:01:04;;;;;;;12.30;4.55;;;9.70;99.90;;;;;;5072230;28;20013;-51
2022/10/25 06:03:30;;;;;;;7.22;4.80;;;9.80;99.90;;;;;;5070555;28;20487;-49
2022/10/25 06:06:01;;;;;;;13.40;3.90;;;9.70;99.90;;;;;;5071841;28;20248;-50
2022/10/25 06:08:27;;;;;;;8.77;4.22;;;9.70;99.90;;;;;;5071576;28;20588;-51
2022/10/25 06:10:53;;;;;;;8.32;3.55;;;9.70;99.90;;;;;;5072010;28;20037;-51
2022/10/25 06:13:18;;;;;;;9.38;4.15;;;9.80;99.90;;;;;;5071440;28;20506;-52
2022/10/25 06:15:44;;;;;;;6.68;4.65;;;9.80;99.90;;;;;;5071751;28;20020;-51
2022/10/25 06:18:10;;;;;;;4.70;4.03;;;9.80;99.90;;;;;;5071350;28;20027;-49
2022/10/25 06:20:35;;;;;;;7.30;4.90;;;9.80;99.90;;;;;;5071548;28;20024;-53
2022/10/25 06:23:01;;;;;;;4.93;4.13;;;9.90;99.90;;;;;;5071632;28;20017;-50
2022/10/25 06:25:26;;;;;;;8.77;4.05;;;10.00;99.90;;;;;;5071429;28;20028;-49
2022/10/25 06:27:52;;;;;;;7.72;4.32;;;10.00;99.90;;;;;;5071648;28;20016;-51
2022/10/25 06:30:18;;;;;;;4.28;3.60;;;10.00;99.90;;;;;;5071150;28;20396;-50
2022/10/25 06:32:43;;;;;;;10.88;3.80;;;10.00;99.90;;;;;;5071275;28;20492;-50
2022/10/25 06:35:09;;;;;;;6.47;4.20;;;10.00;99.90;;;;;;5071365;28;20559;-51
2022/10/25 06:37:34;;;;;;;9.63;5.22;;;10.10;99.90;;;;;;5071139;28;20428;-51
2022/10/25 06:40:00;;;;;;;8.65;4.20;;;10.10;99.90;;;;;;5071311;28;20020;-50
2022/10/25 06:42:26;;;;;;;7.97;3.80;;;10.10;99.90;;;;;;5069581;28;20055;-51
2022/10/25 06:44:51;;;;;;;4.30;3.90;;;10.20;99.90;;;;;;5071049;28;20013;-52
2022/10/25 06:47:17;;;;;;;7.63;3.22;;;10.20;99.90;;;;;;5069349;28;20235;-50
2022/10/25 06:49:42;;;;;;;3.95;3.55;;;10.20;99.90;;;;;;5071132;28;20032;-50
2022/10/25 06:52:08;;;;;;;11.68;5.05;;;10.30;99.90;;;;;;5069552;28;20533;-51
2022/10/25 06:54:34;;;;;;;8.70;5.28;;;10.40;99.90;;;;;;5070853;28;20035;-50
2022/10/25 06:57:00;;;;;;;4.25;3.78;;;10.40;99.90;;;;;;5070947;28;20025;-49
2022/10/25 06:59:26;;;;;;;8.68;4.28;;;10.50;99.90;;;;;;5069574;28;20020;-50
2022/10/25 07:01:52;;;;;;;5.00;4.35;;;10.50;99.90;;;;;;5070839;28;20475;-50
2022/10/25 07:04:17;;;;;;;7.03;4.70;;;10.50;99.90;;;;;;5070497;28;20028;-51
2022/10/25 07:06:43;;;;;;;5.97;4.93;;;10.60;99.90;;;;;;5070838;28;20024;-51
2022/10/25 07:09:11;;;;;;;10.82;4.22;;;10.70;99.90;;;;;;5070416;28;20098;-52
2022/10/25 07:11:37;;;;;;;5.72;3.92;;;10.70;99.90;;;;;;5069284;28;20533;-51
2022/10/25 07:14:03;;;;;;;5.50;3.60;;;10.70;99.90;;;;;;5070737;28;20033;-51
2022/10/25 07:16:29;;;;;;;5.30;3.75;;;10.80;99.90;;;;;;5070341;28;20482;-52
2022/10/25 07:19:02;;;;;;;5.38;3.92;;;10.80;99.90;;;;;;5070464;28;20558;-51
2022/10/25 07:21:29;;;;;;;6.43;5.00;;;10.80;99.90;;;;;;5069152;28;20518;-52
2022/10/25 07:23:55;;;;;;;7.05;4.00;;;10.90;99.90;;;;;;5070662;28;20063;-52
2022/10/25 07:26:24;;;;;;;7.45;3.45;;;10.90;99.90;;;;;;5070211;28;20454;-50
2022/10/25 07:28:52;;;;;;;4.65;3.35;;;11.00;99.90;;;;;;5070563;28;20519;-50
2022/10/25 07:31:24;;;;;;;5.82;3.15;;;11.10;99.90;;;;;;5070230;28;20105;-51
2022/10/25 07:33:52;;;;;;;3.45;2.70;;;11.30;99.90;;;;;;5070554;28;20401;-50
2022/10/25 07:36:18;;;;;;;4.32;2.50;;;11.60;99.90;;;;;;5068861;28;20033;-50
2022/10/25 07:38:43;;;;;;;6.15;2.92;;;11.70;99.90;;;;;;5070535;28;20017;-50
2022/10/25 07:41:09;;;;;;;8.63;2.95;;;11.80;99.90;;;;;;5070046;28;20027;-51
2022/10/25 07:43:36;;;;;;;3.28;2.70;;;11.90;99.90;;;;;;5069169;28;20021;-51
2022/10/25 07:46:03;;;;;;;7.57;2.83;;;12.00;99.90;;;;;;5070325;28;20391;-49
2022/10/25 07:48:28;;;;;;;12.65;3.38;;;12.00;99.90;;;;;;5070167;28;20427;-50
2022/10/25 07:50:54;;;;;;;14.38;4.85;;;12.00;99.90;;;;;;5070258;28;20111;-49
2022/10/25 07:53:19;;;;;;;7.07;4.78;;;12.00;99.90;;;;;;5069961;28;20031;-50
2022/10/25 07:55:54;;;;;;;13.25;5.50;;;12.10;99.90;;;;;;5070127;28;20063;-50
2022/10/25 07:58:19;;;;;;;11.27;3.95;;;12.20;99.90;;;;;;5072033;28;20310;-49
2022/10/25 08:00:45;;;;;;;5.25;3.53;;;12.20;99.90;;;;;;5073041;28;20527;-51
2022/10/25 08:03:12;;;;;;;10.05;3.95;;;12.40;99.90;;;;;;5074045;28;20565;-50
2022/10/25 08:05:38;;;;;;;4.57;3.20;;;12.60;99.90;;;;;;5074216;28;20024;-50
2022/10/25 08:08:04;;;;;;;6.75;4.90;;;12.80;99.90;;;;;;5074003;28;20090;-50
2022/10/25 08:10:30;;;;;;;5.57;3.75;;;13.10;99.90;;;;;;5073834;28;20495;-51
2022/10/25 08:12:56;;;;;;;8.50;3.28;;;13.30;99.90;;;;;;5072775;28;20356;-51
2022/10/25 08:15:22;;;;;;;3.20;2.80;;;13.60;99.90;;;;;;5073912;28;20077;-51
2022/10/25 08:17:50;;;;;;;18.33;2.90;;;14.00;99.90;;;;;;5074042;28;20531;-50
2022/10/25 08:20:16;;;;;;;42.35;4.25;;;13.90;99.90;;;;;;5073680;28;20048;-51
2022/10/25 08:22:41;;;;;;;7.30;2.90;;;13.90;99.90;;;;;;5073923;28;20024;-50
2022/10/25 08:25:07;;;;;;;5.70;3.28;;;13.90;99.90;;;;;;5073785;28;20035;-51
2022/10/25 08:27:33;;;;;;;5.22;2.15;;;14.10;99.90;;;;;;5073739;28;20032;-52
2022/10/25 08:29:59;;;;;;;4.18;2.10;;;14.40;99.90;;;;;;5072491;28;20037;-50
2022/10/25 08:32:24;;;;;;;3.63;2.30;;;14.50;99.90;;;;;;5073658;28;20028;-50
2022/10/25 08:34:50;;;;;;;3.97;2.20;;;14.50;99.90;;;;;;5073658;28;20025;-50
2022/10/25 08:37:15;;;;;;;5.93;1.90;;;14.40;99.90;;;;;;5073502;28;20551;-50
2022/10/25 08:39:42;;;;;;;6.68;2.03;;;14.30;99.90;;;;;;5073488;28;20024;-50
2022/10/25 08:42:21;;;;;;;8.32;3.20;;;14.30;99.90;;;;;;5073543;28;20029;-50
2022/10/25 08:45:15;;;;;;;6.95;2.95;;;14.20;99.90;;;;;;5073429;28;20020;-51
2022/10/25 08:47:44;;;;;;;3.75;2.83;;;14.10;99.90;;;;;;5071141;28;20056;-50
2022/10/25 08:50:23;;;;;;;4.53;2.75;;;14.20;99.90;;;;;;5071760;28;20021;-51
2022/10/25 08:52:57;;;;;;;5.20;2.85;;;14.30;99.90;;;;;;5073378;28;20017;-51
2022/10/25 08:55:34;;;;;;;7.70;4.35;;;14.40;99.90;;;;;;5072935;28;20116;-50
2022/10/25 08:58:02;;;;;;;15.35;3.60;;;14.60;99.90;;;;;;5052934;28;20024;-50
2022/10/25 09:00:41;;;;;;;5.45;2.90;;;14.90;99.90;;;;;;5053043;28;20036;-51
2022/10/25 09:03:26;;;;;;;4.07;2.10;;;15.20;99.90;;;;;;5053233;28;20036;-54
2022/10/25 09:06:10;;;;;;;3.38;2.15;;;15.50;99.90;;;;;;5053102;28;20025;-50
2022/10/25 09:08:59;;;;;;;8.95;2.72;;;15.50;99.90;;;;;;5051301;28;20134;-55
2022/10/25 09:11:43;;;;;;;5.43;2.22;;;15.50;99.90;;;;;;5039255;28;20037;-50
2022/10/25 09:14:33;;;;;;;4.05;1.92;;;15.50;99.90;;;;;;5052901;28;20083;-49
2022/10/25 09:17:11;;;;;;;3.95;2.20;;;15.50;99.90;;;;;;5052634;28;20365;-52
2022/10/25 09:20:10;;;;;;;3.20;1.80;;;15.60;99.90;;;;;;5052861;28;20575;-49
2022/10/25 09:22:48;;;;;;;6.00;1.80;;;15.60;99.90;;;;;;5052712;28;20020;-50
2022/10/25 09:25:33;;;;;;;9.57;2.20;;;15.90;99.90;;;;;;5052588;28;20039;-51
2022/10/25 09:28:02;;;;;;;3.30;1.83;;;15.90;99.90;;;;;;5052454;28;20037;-51
2022/10/25 09:30:34;;;;;;;4.15;1.40;;;16.10;99.90;;;;;;5051210;28;20064;-51
2022/10/25 09:33:04;;;;;;;2.97;1.77;;;16.40;99.90;;;;;;5052515;28;20033;-52
2022/10/25 09:35:47;;;;;;;4.82;1.85;;;16.30;99.90;;;;;;5052284;28;20028;-54
2022/10/25 09:38:26;;;;;;;2.10;1.60;;;16.60;99.90;;;;;;5052183;28;20025;-50
2022/10/25 09:41:14;;;;;;;4.10;1.60;;;16.70;99.90;;;;;;5052880;28;20021;-54
2022/10/25 09:44:02;;;;;;;2.45;1.45;;;16.70;99.90;;;;;;5052489;28;20025;-51
2022/10/25 09:46:46;;;;;;;12.10;1.80;;;16.80;99.90;;;;;;5052190;28;20033;-50
2022/10/25 09:49:27;;;;;;;5.28;2.17;;;17.00;99.90;;;;;;5048454;28;20436;-51
2022/10/25 09:51:58;;;;;;;10.77;2.25;;;17.60;99.90;;;;;;5039526;28;20044;-53
2022/10/25 09:54:39;;;;;;;2.58;1.30;;;18.70;99.90;;;;;;5059611;28;20528;-50
2022/10/25 09:57:05;;;;;;;1.80;1.10;;;20.00;99.90;;;;;;5041225;28;20036;-50
2022/10/25 09:59:31;;;;;;;4.10;1.30;;;20.90;98.80;;;;;;5040981;28;20041;-51
2022/10/25 10:01:56;;;;;;;3.55;1.23;;;22.10;95.30;;;;;;5042481;28;20032;-51
2022/10/25 10:04:37;;;;;;;6.15;1.80;;;22.50;94.10;;;;;;5040280;28;20025;-50
2022/10/25 10:07:29;;;;;;;4.22;1.45;;;21.70;94.00;;;;;;5059822;28;20484;-50
2022/10/25 10:09:59;;;;;;;10.93;1.58;;;20.80;95.00;;;;;;5044222;28;20056;-51
2022/10/25 10:13:00;;;;;;;2.83;1.00;;;20.30;95.80;;;;;;5042025;28;20051;-51
2022/10/25 10:15:37;;;;;;;8.40;1.30;;;20.10;94.50;;;;;;5041443;28;20040;-50
2022/10/25 10:18:22;;;;;;;2.17;1.23;;;19.20;97.10;;;;;;5056698;28;20040;-51
2022/10/25 10:21:09;;;;;;;8.23;1.23;;;19.10;97.50;;;;;;5056094;28;20028;-50
2022/10/25 10:24:01;;;;;;;11.32;1.42;;;18.80;98.10;;;;;;5040789;28;20025;-50
2022/10/25 10:26:32;;;;;;;11.60;1.25;;;18.60;97.80;;;;;;5045539;28;20056;-54
2022/10/25 10:29:15;;;;;;;6.05;0.75;;;18.70;97.90;;;;;;5040868;28;20024;-51
2022/10/25 10:32:06;;;;;;;13.75;1.48;;;19.70;97.70;;;;;;5047830;28;20128;-51
2022/10/25 10:34:40;;;;;;;7.30;0.90;;;20.30;94.90;;;;;;5040126;28;20184;-50
2022/10/25 10:37:13;;;;;;;11.00;1.55;;;19.40;94.50;;;;;;5059529;28;20028;-50
2022/10/25 10:39:48;;;;;;;11.98;1.20;;;19.00;97.30;;;;;;5044969;28;20040;-51
2022/10/25 10:42:16;;;;;;;3.88;1.10;;;18.90;97.20;;;;;;5051296;28;20104;-50
2022/10/25 10:45:18;;;;;;;7.00;1.10;;;18.90;97.20;;;;;;5044359;28;20400;-50
2022/10/25 10:47:50;;;;;;;4.57;1.05;;;18.70;97.30;;;;;;5039666;28;20041;-51
2022/10/25 10:50:21;;;;;;;6.75;0.90;;;18.60;97.80;;;;;;5039639;28;20028;-50
2022/10/25 10:52:47;;;;;;;4.07;1.20;;;19.00;98.40;;;;;;5040418;28;20086;-52
2022/10/25 10:55:30;;;;;;;5.65;1.08;;;18.50;96.80;;;;;;5038799;28;20107;-50
2022/10/25 10:58:02;;;;;;;3.75;1.58;;;18.30;97.50;;;;;;5039457;28;20056;-52
2022/10/25 11:00:31;;;;;;;7.22;2.13;;;18.10;97.50;;;;;;5039293;28;20028;-52
2022/10/25 11:02:57;;;;;;;8.40;1.73;;;18.10;98.10;;;;;;5040058;28;20021;-51
2022/10/25 11:05:34;;;;;;;3.38;1.20;;;18.60;98.20;;;;;;5041103;28;20468;-51
2022/10/25 11:08:08;;;;;;;7.05;1.08;;;19.00;96.90;;;;;;5039823;28;20040;-53
2022/10/25 11:10:38;;;;;;;8.68;1.20;;;19.30;96.70;;;;;;5039334;28;20041;-52
2022/10/25 11:13:09;;;;;;;6.43;0.85;;;19.50;95.80;;;;;;5039993;28;22225;-50
2022/10/25 11:15:43;;;;;;;2.05;1.00;;;20.80;94.00;;;;;;5038847;28;20059;-53
2022/10/25 11:18:11;;;;;;;1.77;1.02;;;22.80;90.70;;;;;;5047104;28;20078;-53
2022/10/25 11:21:03;;;;;;;14.52;1.83;;;24.20;86.70;;;;;;5044782;28;20039;-51
2022/10/25 11:23:40;;;;;;;3.30;1.67;;;25.10;81.10;;;;;;5039687;28;20447;-50
2022/10/25 11:26:25;;;;;;;10.57;3.15;;;25.10;78.20;;;;;;5039708;28;20518;-50
2022/10/25 11:29:14;;;;;;;8.57;3.47;;;26.20;74.10;;;;;;5040126;28;20040;-50
2022/10/25 11:32:18;;;;;;;2.92;0.90;;;25.10;71.30;;;;;;5039852;28;20032;-50
2022/10/25 11:35:15;;;;;;;1.73;0.68;;;25.30;73.10;;;;;;5033970;28;20119;-51
2022/10/25 11:37:53;;;;;;;7.80;1.00;;;25.70;71.00;;;;;;5038492;28;20377;-51
2022/10/25 11:40:25;;;;;;;4.30;0.50;;;27.80;66.50;;;;;;5039291;28;20032;-50
2022/10/25 11:43:05;;;;;;;3.93;1.00;;;26.90;66.80;;;;;;5040973;28;20029;-51
2022/10/25 11:45:40;;;;;;;2.63;1.00;;;25.10;71.80;;;;;;5054397;28;20171;-50
2022/10/25 11:48:30;;;;;;;1.50;0.75;;;22.70;73.20;;;;;;5038927;28;20063;-50
2022/10/25 11:51:22;;;;;;;5.38;1.02;;;21.60;76.20;;;;;;5039072;28;20025;-50
2022/10/25 11:54:02;;;;;;;7.07;0.82;;;21.20;79.40;;;;;;5007349;28;20103;-50
2022/10/25 11:57:04;;;;;;;6.13;1.20;;;22.00;79.40;;;;;;5038241;28;20037;-50
2022/10/25 11:59:48;;;;;;;3.50;0.95;;;23.20;74.40;;;;;;5038755;28;20029;-51
2022/10/25 12:02:22;;;;;;;2.67;0.70;;;24.90;70.40;;;;;;5054115;28;20048;-53
2022/10/25 12:05:00;;;;;;;14.02;1.63;;;27.10;64.10;;;;;;5038995;28;20029;-50
2022/10/25 12:07:35;;;;;;;3.65;0.52;;;26.10;63.20;;;;;;5039582;28;20834;-50
2022/10/25 12:10:09;;;;;;;13.90;1.00;;;25.80;66.30;;;;;;5054101;28;20440;-50
2022/10/25 12:12:57;;;;;;;0.93;0.50;;;25.90;64.70;;;;;;5038798;28;20091;-50
2022/10/25 12:15:37;;;;;;;9.15;1.33;;;24.70;66.90;;;;;;5039830;28;20107;-49
2022/10/25 12:18:05;;;;;;;4.82;1.27;;;23.00;68.70;;;;;;5039420;28;20037;-50
2022/10/25 12:20:32;;;;;;;6.85;0.82;;;22.30;72.20;;;;;;5037854;28;20492;-53
2022/10/25 12:23:02;;;;;;;3.72;1.00;;;23.00;72.20;;;;;;5040088;28;20025;-52
2022/10/25 12:25:34;;;;;;;2.00;0.93;;;23.90;71.20;;;;;;5038807;28;20205;-51
2022/10/25 12:28:21;;;;;;;1.75;1.00;;;23.20;70.50;;;;;;5038949;28;20115;-52
2022/10/25 12:30:47;;;;;;;6.68;1.50;;;23.60;70.80;;;;;;5037872;28;20037;-50
2022/10/25 12:33:52;;;;;;;4.07;0.82;;;23.00;71.50;;;;;;5038347;28;20101;-51
2022/10/25 12:36:27;;;;;;;14.38;1.05;;;23.10;71.90;;;;;;4939821;28;20039;-53
2022/10/25 12:38:55;;;;;;;2.70;1.10;;;23.00;71.70;;;;;;5042278;28;20530;-51
2022/10/25 12:41:24;;;;;;;3.72;1.02;;;22.30;72.40;;;;;;5038579;28;20507;-50
2022/10/25 12:44:14;;;;;;;1.17;0.70;;;23.10;72.90;;;;;;5040275;28;20105;-51
2022/10/25 12:47:14;;;;;;;3.00;1.10;;;24.10;71.90;;;;;;5042624;28;20388;-50
2022/10/25 12:50:13;;;;;;;20.23;2.13;;;25.70;68.00;;;;;;5042494;28;20029;-50
2022/10/25 12:53:01;;;;;;;6.22;1.15;;;25.70;66.00;;;;;;5043493;28;20678;-51
2022/10/25 12:55:30;;;;;;;13.50;1.00;;;26.70;62.10;;;;;;5042919;28;20060;-50
2022/10/25 12:58:14;;;;;;;5.15;0.68;;;26.60;62.00;;;;;;5043473;28;20108;-50
2022/10/25 13:00:57;;;;;;;3.50;0.70;;;26.90;61.30;;;;;;5043784;28;20407;-51
2022/10/25 13:03:53;;;;;;;4.00;0.90;;;28.10;61.00;;;;;;5051523;28;20033;-50
2022/10/25 13:06:33;;;;;;;3.42;0.63;;;28.50;57.90;;;;;;5053893;28;20056;-51
2022/10/25 13:09:12;;;;;;;3.10;0.60;;;27.70;56.80;;;;;;5054026;28;20118;-51
2022/10/25 13:11:56;;;;;;;2.47;0.75;;;26.80;58.30;;;;;;5054253;28;20048;-50
2022/10/25 13:14:25;;;;;;;1.73;0.82;;;28.00;57.40;;;;;;5054072;28;20036;-55
2022/10/25 13:16:51;;;;;;;2.15;0.95;;;29.20;56.30;;;;;;5054067;28;20618;-50